Time;durP1;ratioP1;P1;durP2;ratioP2;P2;SDS_P1;SDS_P2;PMS_P1;PMS_P2;Temp;Humidity;BMP_temperature;BMP_pressure;BME280_temperature;BME280_humidity;BME280_pressure;Samples;Min_cycle;Max_cycle;Signal;HPM_P1;HPM_P2
2023/04/10 05:00:05;;;;;;;13.50;12.10;;;;;;;;;;1761803;27;20272;-66
2023/04/10 05:00:56;;;;;;;13.65;12.25;;;;;;;;;;1761740;28;20221;-66
2023/04/10 05:01:48;;;;;;;12.38;11.13;;;;;;;;;;1761645;28;20228;-66
2023/04/10 05:02:39;;;;;;;13.65;11.95;;;;;;;;;;1761548;28;20224;-64
2023/04/10 05:03:31;;;;;;;12.82;11.60;;;;;;;;;;1761892;28;20259;-65
2023/04/10 05:04:23;;;;;;;13.85;12.55;;;;;;;;;;1761575;28;20247;-66
2023/04/10 05:05:15;;;;;;;13.23;11.93;;;;;;;;;;1761981;28;20751;-66
2023/04/10 05:06:07;;;;;;;13.80;12.43;;;;;;;;;;1762664;28;20193;-66
2023/04/10 05:06:58;;;;;;;14.10;12.70;;;;;;;;;;1761595;28;20225;-66
2023/04/10 05:07:50;;;;;;;13.57;12.15;;;;;;;;;;1761560;27;20197;-65
2023/04/10 05:08:41;;;;;;;13.07;11.77;;;;;;;;;;1767778;27;20200;-65
2023/04/10 05:09:33;;;;;;;12.75;11.45;;;;;;;;;;1761997;27;20216;-65
2023/04/10 05:10:24;;;;;;;13.18;11.93;;;;;;;;;;1760678;28;20205;-66
2023/04/10 05:11:16;;;;;;;14.10;12.70;;;;;;;;;;1761499;28;20201;-66
2023/04/10 05:12:07;;;;;;;14.10;12.60;;;;;;;;;;1762249;28;20698;-66
2023/04/10 05:12:59;;;;;;;13.35;12.05;;;;;;;;;;1762314;28;20197;-64
2023/04/10 05:13:51;;;;;;;14.85;13.40;;;;;;;;;;1762035;28;20262;-65
2023/04/10 05:14:43;;;;;;;14.23;12.82;;;;;;;;;;1761741;28;20194;-66
2023/04/10 05:15:35;;;;;;;13.88;12.48;;;;;;;;;;1762639;28;20296;-66
2023/04/10 05:16:27;;;;;;;14.20;12.70;;;;;;;;;;1762620;28;20248;-66
2023/04/10 05:17:18;;;;;;;13.63;12.32;;;;;;;;;;1762383;28;20615;-66
2023/04/10 05:18:11;;;;;;;14.30;12.90;;;;;;;;;;1761369;28;20196;-66
2023/04/10 05:19:02;;;;;;;12.93;11.73;;;;;;;;;;1761804;27;20207;-65
2023/04/10 05:19:54;;;;;;;13.45;12.07;;;;;;;;;;1762360;28;20561;-65
2023/04/10 05:20:46;;;;;;;15.55;14.02;;;;;;;;;;1762279;28;20739;-66
2023/04/10 05:21:38;;;;;;;13.75;12.35;;;;;;;;;;1762379;28;20224;-66
2023/04/10 05:22:29;;;;;;;14.13;12.65;;;;;;;;;;1762267;28;20201;-65
2023/04/10 05:23:21;;;;;;;12.63;11.43;;;;;;;;;;1762347;28;20292;-66
2023/04/10 05:24:12;;;;;;;13.77;12.40;;;;;;;;;;1762488;28;20201;-66
2023/04/10 05:25:05;;;;;;;13.90;12.60;;;;;;;;;;1762545;28;20193;-66
2023/04/10 05:25:56;;;;;;;14.30;12.80;;;;;;;;;;1762288;28;20679;-66
2023/04/10 05:26:48;;;;;;;13.75;12.25;;;;;;;;;;1762448;28;20193;-65
2023/04/10 05:27:39;;;;;;;13.40;12.02;;;;;;;;;;1761876;28;20197;-65
2023/04/10 05:28:31;;;;;;;14.55;13.20;;;;;;;;;;1762071;28;20232;-66
2023/04/10 05:29:23;;;;;;;13.57;12.27;;;;;;;;;;1761539;28;20213;-65
2023/04/10 05:30:15;;;;;;;13.73;12.43;;;;;;;;;;1761870;28;20189;-66
2023/04/10 05:31:08;;;;;;;13.20;11.90;;;;;;;;;;1762437;28;20201;-66
2023/04/10 05:32:00;;;;;;;13.10;11.85;;;;;;;;;;1762458;28;20197;-66
2023/04/10 05:32:51;;;;;;;13.15;11.85;;;;;;;;;;1762158;28;20202;-66
2023/04/10 05:33:43;;;;;;;14.00;12.50;;;;;;;;;;1762516;28;20222;-65
2023/04/10 05:34:34;;;;;;;13.02;11.73;;;;;;;;;;1762416;28;20596;-65
2023/04/10 05:35:26;;;;;;;13.70;12.30;;;;;;;;;;1762521;28;20257;-66
2023/04/10 05:36:17;;;;;;;12.90;11.70;;;;;;;;;;1762133;28;20839;-65
2023/04/10 05:37:11;;;;;;;13.15;11.80;;;;;;;;;;1762403;28;20189;-66
2023/04/10 05:38:02;;;;;;;14.07;12.77;;;;;;;;;;1761408;28;20208;-65
2023/04/10 05:38:54;;;;;;;13.85;12.52;;;;;;;;;;1762033;28;20201;-64
2023/04/10 05:39:45;;;;;;;13.27;12.05;;;;;;;;;;1762134;28;20202;-66
2023/04/10 05:40:37;;;;;;;12.93;11.73;;;;;;;;;;1762119;28;20235;-65
2023/04/10 05:41:29;;;;;;;13.50;12.10;;;;;;;;;;1762368;28;20559;-65
2023/04/10 05:42:21;;;;;;;13.63;12.23;;;;;;;;;;1762343;28;20556;-65
2023/04/10 05:43:12;;;;;;;13.63;12.23;;;;;;;;;;1762161;28;20201;-65
2023/04/10 05:44:04;;;;;;;13.23;11.93;;;;;;;;;;1762479;28;20189;-66
2023/04/10 05:44:55;;;;;;;12.85;11.65;;;;;;;;;;1762382;28;20200;-66
2023/04/10 05:45:47;;;;;;;13.38;12.13;;;;;;;;;;1762054;28;20195;-66
2023/04/10 05:46:40;;;;;;;16.25;12.50;;;;;;;;;;1762399;28;20193;-66
2023/04/10 05:47:32;;;;;;;13.23;11.98;;;;;;;;;;1761993;28;20197;-65
2023/04/10 05:48:24;;;;;;;13.40;12.10;;;;;;;;;;1761679;28;20197;-66
2023/04/10 05:49:17;;;;;;;14.20;12.80;;;;;;;;;;1761571;28;20243;-65
2023/04/10 05:50:08;;;;;;;12.95;11.75;;;;;;;;;;1762094;28;20205;-65
2023/04/10 05:51:00;;;;;;;13.70;12.27;;;;;;;;;;1762434;28;20223;-66
2023/04/10 05:51:52;;;;;;;13.68;12.27;;;;;;;;;;1762242;28;20200;-66
2023/04/10 05:52:45;;;;;;;13.55;12.15;;;;;;;;;;1762124;28;20199;-66
2023/04/10 05:53:36;;;;;;;14.60;13.20;;;;;;;;;;1762265;28;20233;-66
2023/04/10 05:54:28;;;;;;;14.88;13.32;;;;;;;;;;1762317;28;20284;-66
2023/04/10 05:55:19;;;;;;;14.50;13.00;;;;;;;;;;1762353;28;20232;-66
2023/04/10 05:56:11;;;;;;;13.75;12.45;;;;;;;;;;1762014;28;20196;-65
2023/04/10 05:57:02;;;;;;;13.50;12.20;;;;;;;;;;1762370;28;20208;-65
2023/04/10 05:57:54;;;;;;;13.48;12.18;;;;;;;;;;1761376;28;20196;-66
2023/04/10 05:58:45;;;;;;;13.18;11.70;;;;;;;;;;1761831;28;20216;-65
2023/04/10 05:59:37;;;;;;;14.25;12.85;;;;;;;;;;1761871;28;20193;-66
2023/04/10 06:00:29;;;;;;;14.07;12.68;;;;;;;;;;1761910;28;20216;-66
2023/04/10 06:01:21;;;;;;;15.00;13.43;;;;;;;;;;1762349;28;20660;-66
2023/04/10 06:02:13;;;;;;;16.52;14.82;;;;;;;;;;1762069;28;20255;-64
2023/04/10 06:03:05;;;;;;;14.98;13.50;;;;;;;;;;1762079;28;20204;-65
2023/04/10 06:03:56;;;;;;;15.20;13.60;;;;;;;;;;1762306;28;20236;-65
2023/04/10 06:04:48;;;;;;;17.30;15.27;;;;;;;;;;1762178;28;20197;-66
2023/04/10 06:05:40;;;;;;;16.50;14.90;;;;;;;;;;1762093;28;20204;-66
2023/04/10 06:06:32;;;;;;;15.07;13.63;;;;;;;;;;1762303;28;20201;-65
2023/04/10 06:07:23;;;;;;;15.85;14.25;;;;;;;;;;1762343;28;20201;-65
2023/04/10 06:08:15;;;;;;;15.10;13.65;;;;;;;;;;1761323;27;20231;-67
2023/04/10 06:09:06;;;;;;;14.45;12.95;;;;;;;;;;1761537;28;20235;-65
2023/04/10 06:09:58;;;;;;;13.50;12.20;;;;;;;;;;1762038;28;20200;-66
2023/04/10 06:10:50;;;;;;;13.43;12.13;;;;;;;;;;1762113;28;20704;-66
2023/04/10 06:11:42;;;;;;;12.45;11.25;;;;;;;;;;1762210;28;20322;-65
2023/04/10 06:12:33;;;;;;;13.40;12.10;;;;;;;;;;1762179;28;20198;-66
2023/04/10 06:13:26;;;;;;;12.68;11.48;;;;;;;;;;1761894;28;20663;-66
2023/04/10 06:14:17;;;;;;;13.80;12.40;;;;;;;;;;1762238;28;20204;-66
2023/04/10 06:15:09;;;;;;;11.85;10.70;;;;;;;;;;1762215;28;20676;-66
2023/04/10 06:16:00;;;;;;;13.73;12.30;;;;;;;;;;1761991;28;20189;-64
2023/04/10 06:16:52;;;;;;;13.45;12.23;;;;;;;;;;1762131;28;20198;-65
2023/04/10 06:17:45;;;;;;;11.63;10.52;;;;;;;;;;1761641;28;20204;-64
2023/04/10 06:18:38;;;;;;;12.77;11.57;;;;;;;;;;1761659;28;20208;-66
2023/04/10 06:19:29;;;;;;;12.95;11.75;;;;;;;;;;1761363;28;20238;-65
2023/04/10 06:20:21;;;;;;;13.30;11.95;;;;;;;;;;1761863;28;20258;-66
2023/04/10 06:21:12;;;;;;;13.02;11.65;;;;;;;;;;1762218;28;20675;-66
2023/04/10 06:22:04;;;;;;;13.13;11.82;;;;;;;;;;1762014;28;20201;-64
2023/04/10 06:22:55;;;;;;;13.95;12.55;;;;;;;;;;1762032;28;20197;-65
2023/04/10 06:23:47;;;;;;;14.40;12.90;;;;;;;;;;1761883;28;20263;-66
2023/04/10 06:24:38;;;;;;;14.43;13.07;;;;;;;;;;1762093;28;20209;-65
2023/04/10 06:25:30;;;;;;;13.35;12.07;;;;;;;;;;1762097;28;20193;-66
2023/04/10 06:26:21;;;;;;;13.05;11.82;;;;;;;;;;1761830;28;20208;-65
2023/04/10 06:27:13;;;;;;;13.52;12.18;;;;;;;;;;1762194;28;20189;-65
2023/04/10 06:28:05;;;;;;;13.57;12.27;;;;;;;;;;1761143;28;20639;-66
2023/04/10 06:28:57;;;;;;;14.05;12.70;;;;;;;;;;1761494;28;20760;-65
2023/04/10 06:29:48;;;;;;;13.90;12.50;;;;;;;;;;1761675;28;20613;-65
2023/04/10 06:30:40;;;;;;;13.40;12.10;;;;;;;;;;1761695;28;20225;-65
2023/04/10 06:31:32;;;;;;;13.52;12.30;;;;;;;;;;1761989;28;20257;-65
2023/04/10 06:32:24;;;;;;;13.25;11.95;;;;;;;;;;1762102;28;20656;-65
2023/04/10 06:33:17;;;;;;;12.73;11.45;;;;;;;;;;1761974;28;20204;-65
2023/04/10 06:34:09;;;;;;;12.93;11.70;;;;;;;;;;1761825;28;20231;-65
2023/04/10 06:35:00;;;;;;;13.10;11.85;;;;;;;;;;1762093;28;20201;-65
2023/04/10 06:35:52;;;;;;;14.13;12.60;;;;;;;;;;1761736;28;20565;-65
2023/04/10 06:36:43;;;;;;;13.32;12.00;;;;;;;;;;1762123;28;20572;-65
2023/04/10 06:37:35;;;;;;;14.05;12.75;;;;;;;;;;1761739;28;20254;-65
2023/04/10 06:38:27;;;;;;;14.68;13.30;;;;;;;;;;1761438;28;20675;-65
2023/04/10 06:39:19;;;;;;;12.10;10.90;;;;;;;;;;1761253;28;20623;-65
2023/04/10 06:40:11;;;;;;;13.38;12.07;;;;;;;;;;1761606;28;20262;-65
2023/04/10 06:41:03;;;;;;;13.70;12.40;;;;;;;;;;1762061;28;20201;-65
2023/04/10 06:41:56;;;;;;;12.55;11.35;;;;;;;;;;1761932;28;20193;-65
2023/04/10 06:42:47;;;;;;;12.07;11.02;;;;;;;;;;1761947;28;20648;-64
2023/04/10 06:43:39;;;;;;;12.73;11.52;;;;;;;;;;1761781;28;20220;-65
2023/04/10 06:44:31;;;;;;;12.60;11.30;;;;;;;;;;1761828;28;20197;-65
2023/04/10 06:45:23;;;;;;;13.90;12.52;;;;;;;;;;1762103;28;20205;-64
2023/04/10 06:46:14;;;;;;;12.60;11.30;;;;;;;;;;1761691;28;20749;-65
2023/04/10 06:47:07;;;;;;;12.35;11.15;;;;;;;;;;1761858;28;20204;-64
2023/04/10 06:47:59;;;;;;;12.57;11.38;;;;;;;;;;1761278;28;20249;-65
2023/04/10 06:48:52;;;;;;;11.68;10.52;;;;;;;;;;1761256;28;20224;-65
2023/04/10 06:49:43;;;;;;;11.05;10.05;;;;;;;;;;1761586;28;20197;-65
2023/04/10 06:50:35;;;;;;;12.00;10.93;;;;;;;;;;1761570;28;20216;-65
2023/04/10 06:51:26;;;;;;;13.00;11.80;;;;;;;;;;1761936;28;20205;-63
2023/04/10 06:52:18;;;;;;;12.45;11.23;;;;;;;;;;1762014;28;20262;-65
2023/04/10 06:53:10;;;;;;;13.07;11.70;;;;;;;;;;1761897;28;20722;-63
2023/04/10 06:54:01;;;;;;;13.60;12.20;;;;;;;;;;1761650;28;20888;-65
2023/04/10 06:54:53;;;;;;;12.73;11.50;;;;;;;;;;1761974;28;20185;-65
2023/04/10 06:55:45;;;;;;;13.15;11.77;;;;;;;;;;1761633;28;20228;-65
2023/04/10 06:56:37;;;;;;;13.23;11.52;;;;;;;;;;1761908;28;20224;-65
2023/04/10 06:57:28;;;;;;;12.65;11.40;;;;;;;;;;1761840;28;20201;-64
2023/04/10 06:58:20;;;;;;;12.95;11.70;;;;;;;;;;1761204;28;20189;-65
2023/04/10 06:59:11;;;;;;;13.10;11.80;;;;;;;;;;1760911;28;20209;-68
2023/04/10 07:00:04;;;;;;;12.27;11.07;;;;;;;;;;1761553;28;20227;-65
2023/04/10 07:00:55;;;;;;;11.80;10.60;;;;;;;;;;1761873;28;20581;-65
2023/04/10 07:01:47;;;;;;;11.77;10.57;;;;;;;;;;1761883;28;20205;-66
2023/04/10 07:02:38;;;;;;;11.75;10.65;;;;;;;;;;1761810;28;20331;-65
2023/04/10 07:03:30;;;;;;;11.50;10.40;;;;;;;;;;1761769;28;20250;-65
2023/04/10 07:04:23;;;;;;;10.90;9.90;;;;;;;;;;1761646;28;20201;-65
2023/04/10 07:05:14;;;;;;;11.00;9.90;;;;;;;;;;1761818;28;20197;-65
2023/04/10 07:06:07;;;;;;;11.00;9.90;;;;;;;;;;1761589;28;20195;-65
2023/04/10 07:06:58;;;;;;;11.25;10.07;;;;;;;;;;1761669;28;20189;-64
2023/04/10 07:07:50;;;;;;;10.60;9.50;;;;;;;;;;1761210;28;20549;-66
2023/04/10 07:08:41;;;;;;;10.13;9.13;;;;;;;;;;1760665;28;20193;-65
2023/04/10 07:09:33;;;;;;;11.02;10.02;;;;;;;;;;1760853;28;20228;-64
2023/04/10 07:10:25;;;;;;;11.05;10.02;;;;;;;;;;1761528;28;20245;-65
2023/04/10 07:11:16;;;;;;;11.27;9.88;;;;;;;;;;1761831;28;20212;-65
2023/04/10 07:12:08;;;;;;;10.70;9.63;;;;;;;;;;1761765;28;20611;-66
2023/04/10 07:12:59;;;;;;;11.02;10.07;;;;;;;;;;1761968;28;20244;-65
2023/04/10 07:13:52;;;;;;;11.60;9.43;;;;;;;;;;1761621;28;20546;-64
2023/04/10 07:14:43;;;;;;;10.30;9.30;;;;;;;;;;1761583;28;20221;-65
2023/04/10 07:15:35;;;;;;;10.45;9.38;;;;;;;;;;1761763;28;20754;-65
2023/04/10 07:16:28;;;;;;;10.75;9.68;;;;;;;;;;1761601;28;20808;-65
2023/04/10 07:17:20;;;;;;;10.40;9.40;;;;;;;;;;1761775;28;20197;-65
2023/04/10 07:18:11;;;;;;;11.50;10.40;;;;;;;;;;1761055;28;20209;-65
2023/04/10 07:19:03;;;;;;;10.30;9.35;;;;;;;;;;1760862;28;20215;-65
2023/04/10 07:19:55;;;;;;;10.23;9.25;;;;;;;;;;1761280;28;20220;-65
2023/04/10 07:20:48;;;;;;;10.73;9.60;;;;;;;;;;1761508;28;20565;-65
2023/04/10 07:21:39;;;;;;;9.27;8.43;;;;;;;;;;1761658;28;20338;-65
2023/04/10 07:22:32;;;;;;;9.10;8.20;;;;;;;;;;1761744;28;20664;-64
2023/04/10 07:23:24;;;;;;;9.63;8.63;;;;;;;;;;1761762;28;20205;-65
2023/04/10 07:24:15;;;;;;;9.60;8.70;;;;;;;;;;1761426;28;20656;-65
2023/04/10 07:25:08;;;;;;;10.10;9.20;;;;;;;;;;1761721;28;20196;-67
2023/04/10 07:25:59;;;;;;;8.55;7.85;;;;;;;;;;1761657;28;20208;-67
2023/04/10 07:26:51;;;;;;;9.70;8.70;;;;;;;;;;1761747;28;20742;-65
2023/04/10 07:27:43;;;;;;;9.25;8.45;;;;;;;;;;1761278;28;20201;-65
2023/04/10 07:28:35;;;;;;;9.35;8.45;;;;;;;;;;1761295;28;20222;-65
2023/04/10 07:29:27;;;;;;;8.90;8.00;;;;;;;;;;1760599;28;20489;-65
2023/04/10 07:30:18;;;;;;;10.00;9.10;;;;;;;;;;1761206;28;20309;-65
2023/04/10 07:31:12;;;;;;;9.50;8.60;;;;;;;;;;1761669;28;20201;-66
2023/04/10 07:32:04;;;;;;;8.70;7.90;;;;;;;;;;1761772;28;20205;-65
2023/04/10 07:32:56;;;;;;;8.95;8.13;;;;;;;;;;1761803;28;20185;-65
2023/04/10 07:33:47;;;;;;;8.60;7.70;;;;;;;;;;1761630;28;20246;-64
2023/04/10 07:34:40;;;;;;;9.75;8.85;;;;;;;;;;1761504;28;20683;-65
2023/04/10 07:35:33;;;;;;;8.30;7.57;;;;;;;;;;1761794;28;20204;-67
2023/04/10 07:36:25;;;;;;;7.93;7.22;;;;;;;;;;1761450;28;20198;-68
2023/04/10 07:37:16;;;;;;;8.68;7.78;;;;;;;;;;1761610;28;20285;-67
2023/04/10 07:38:09;;;;;;;8.00;7.30;;;;;;;;;;1760680;28;20560;-67
2023/04/10 07:39:00;;;;;;;8.73;7.82;;;;;;;;;;1761007;28;20283;-64
2023/04/10 07:39:52;;;;;;;8.50;7.70;;;;;;;;;;1761085;28;20186;-66
2023/04/10 07:40:43;;;;;;;7.95;7.25;;;;;;;;;;1761507;28;20213;-66
2023/04/10 07:41:35;;;;;;;8.45;7.55;;;;;;;;;;1761644;28;20189;-68
2023/04/10 07:42:26;;;;;;;9.00;8.10;;;;;;;;;;1761584;28;20208;-65
2023/04/10 07:43:18;;;;;;;8.30;7.50;;;;;;;;;;1761689;28;20201;-65
2023/04/10 07:44:10;;;;;;;8.60;7.80;;;;;;;;;;1761510;28;20205;-64
2023/04/10 07:45:02;;;;;;;8.60;7.80;;;;;;;;;;1761448;28;20215;-65
2023/04/10 07:45:53;;;;;;;7.43;6.82;;;;;;;;;;1761409;28;20197;-65
2023/04/10 07:46:45;;;;;;;8.60;7.63;;;;;;;;;;1761646;28;20538;-65
2023/04/10 07:47:36;;;;;;;8.00;7.30;;;;;;;;;;1761328;28;20559;-65
2023/04/10 07:48:28;;;;;;;7.78;7.07;;;;;;;;;;1761322;28;20238;-65
2023/04/10 07:49:19;;;;;;;7.90;7.20;;;;;;;;;;1760600;28;20228;-65
2023/04/10 07:50:11;;;;;;;9.25;7.85;;;;;;;;;;1761145;28;20228;-65
2023/04/10 07:51:04;;;;;;;8.40;7.60;;;;;;;;;;1761585;28;20223;-65
2023/04/10 07:51:56;;;;;;;8.20;7.40;;;;;;;;;;1761717;28;20708;-66
2023/04/10 07:52:48;;;;;;;8.00;7.20;;;;;;;;;;1761693;28;20197;-67
2023/04/10 07:53:40;;;;;;;6.78;6.18;;;;;;;;;;1761671;28;20193;-67
2023/04/10 07:54:33;;;;;;;7.55;6.85;;;;;;;;;;1761498;28;20219;-64
2023/04/10 07:55:24;;;;;;;7.93;7.22;;;;;;;;;;1761560;28;20201;-65
2023/04/10 07:56:17;;;;;;;8.05;7.25;;;;;;;;;;1761390;28;20220;-65
2023/04/10 07:57:08;;;;;;;7.80;7.10;;;;;;;;;;1761679;28;20207;-65
2023/04/10 07:58:00;;;;;;;8.13;7.40;;;;;;;;;;1760947;28;20197;-66
2023/04/10 07:58:52;;;;;;;7.38;6.68;;;;;;;;;;1761185;28;20228;-65
2023/04/10 07:59:43;;;;;;;7.32;6.72;;;;;;;;;;1760868;28;20220;-65
2023/04/10 08:00:35;;;;;;;8.02;7.32;;;;;;;;;;1761192;28;20213;-65
2023/04/10 08:01:27;;;;;;;8.10;7.30;;;;;;;;;;1761193;28;20700;-64
2023/04/10 08:02:19;;;;;;;7.70;7.00;;;;;;;;;;1761560;28;20636;-64
2023/04/10 08:03:10;;;;;;;7.63;6.93;;;;;;;;;;1761492;28;20277;-65
2023/04/10 08:04:03;;;;;;;7.38;6.43;;;;;;;;;;1761741;28;20201;-65
2023/04/10 08:04:54;;;;;;;7.68;6.95;;;;;;;;;;1758398;28;20234;-67
2023/04/10 08:05:46;;;;;;;7.25;6.65;;;;;;;;;;1761265;28;20189;-65
2023/04/10 08:06:38;;;;;;;7.22;6.63;;;;;;;;;;1761083;28;20241;-66
2023/04/10 08:07:31;;;;;;;7.70;6.97;;;;;;;;;;1760971;28;20712;-64
2023/04/10 08:08:22;;;;;;;7.65;6.90;;;;;;;;;;1760574;28;20193;-65
2023/04/10 08:09:14;;;;;;;6.60;6.00;;;;;;;;;;1761164;28;20267;-65
2023/04/10 08:10:06;;;;;;;7.65;6.85;;;;;;;;;;1759220;28;20198;-65
2023/04/10 08:10:58;;;;;;;8.15;6.75;;;;;;;;;;1761204;28;20676;-65
2023/04/10 08:11:49;;;;;;;7.28;6.57;;;;;;;;;;1761121;28;20656;-66
2023/04/10 08:12:41;;;;;;;7.10;6.50;;;;;;;;;;1761360;28;20567;-66
2023/04/10 08:13:33;;;;;;;7.40;6.70;;;;;;;;;;1761131;28;20520;-66
2023/04/10 08:14:25;;;;;;;6.38;5.80;;;;;;;;;;1760935;28;20280;-67
2023/04/10 08:15:17;;;;;;;6.75;6.15;;;;;;;;;;1760845;28;20200;-65
2023/04/10 08:16:09;;;;;;;6.60;6.00;;;;;;;;;;1760686;28;20614;-65
2023/04/10 08:17:00;;;;;;;5.85;5.35;;;;;;;;;;1761237;28;20797;-64
2023/04/10 08:17:52;;;;;;;5.50;5.05;;;;;;;;;;1760608;28;20189;-65
2023/04/10 08:18:43;;;;;;;5.30;4.80;;;;;;;;;;1757623;28;20201;-65
2023/04/10 08:19:35;;;;;;;5.80;5.30;;;;;;;;;;1757754;28;20561;-65
2023/04/10 08:20:27;;;;;;;5.95;5.45;;;;;;;;;;1760424;28;20193;-65
2023/04/10 08:21:19;;;;;;;5.85;5.35;;;;;;;;;;1761251;28;20269;-64
2023/04/10 08:22:11;;;;;;;6.22;5.72;;;;;;;;;;1761125;28;20197;-65
2023/04/10 08:23:04;;;;;;;5.47;4.97;;;;;;;;;;1761036;28;20249;-64
2023/04/10 08:23:56;;;;;;;5.18;4.70;;;;;;;;;;1761113;28;20189;-66
2023/04/10 08:24:48;;;;;;;5.50;5.00;;;;;;;;;;1761086;28;20224;-66
2023/04/10 08:25:39;;;;;;;5.25;4.85;;;;;;;;;;1760986;28;20231;-65
2023/04/10 08:26:31;;;;;;;5.07;4.60;;;;;;;;;;1760918;28;20189;-66
2023/04/10 08:27:22;;;;;;;4.70;4.30;;;;;;;;;;1758395;28;20193;-64
2023/04/10 08:28:14;;;;;;;4.95;4.55;;;;;;;;;;1758504;28;20605;-65
2023/04/10 08:29:06;;;;;;;5.18;4.65;;;;;;;;;;1760199;28;20225;-64
2023/04/10 08:29:58;;;;;;;5.25;4.75;;;;;;;;;;1757807;28;20284;-66
2023/04/10 08:30:49;;;;;;;5.40;4.90;;;;;;;;;;1760875;28;20591;-65
2023/04/10 08:31:42;;;;;;;4.70;4.30;;;;;;;;;;1760899;28;20655;-65
2023/04/10 08:32:33;;;;;;;4.80;4.40;;;;;;;;;;1760733;28;20243;-65
2023/04/10 08:33:25;;;;;;;5.47;4.97;;;;;;;;;;1760943;28;20200;-65
2023/04/10 08:34:16;;;;;;;4.43;4.03;;;;;;;;;;1761023;28;20657;-66
2023/04/10 08:35:09;;;;;;;4.90;4.50;;;;;;;;;;1760754;28;20200;-66
2023/04/10 08:36:00;;;;;;;5.18;4.68;;;;;;;;;;1757991;28;20193;-66
2023/04/10 08:36:52;;;;;;;5.40;4.90;;;;;;;;;;1761068;28;20207;-64
2023/04/10 08:37:44;;;;;;;5.43;4.93;;;;;;;;;;1760723;28;20201;-64
2023/04/10 08:38:36;;;;;;;5.65;5.15;;;;;;;;;;1759600;28;20193;-65
2023/04/10 08:39:27;;;;;;;4.97;4.53;;;;;;;;;;1758418;28;20221;-66
2023/04/10 08:40:19;;;;;;;5.30;4.80;;;;;;;;;;1760272;28;20193;-66
2023/04/10 08:41:11;;;;;;;5.45;4.95;;;;;;;;;;1760924;28;20201;-65
2023/04/10 08:42:03;;;;;;;5.07;4.68;;;;;;;;;;1761085;28;20193;-66
2023/04/10 08:42:54;;;;;;;4.00;3.70;;;;;;;;;;1761054;28;20221;-65
2023/04/10 08:43:48;;;;;;;5.32;4.85;;;;;;;;;;1760977;28;20200;-65
2023/04/10 08:44:40;;;;;;;5.20;4.80;;;;;;;;;;1758415;28;20327;-65
2023/04/10 08:45:32;;;;;;;4.82;4.22;;;;;;;;;;1760718;28;20281;-65
2023/04/10 08:46:25;;;;;;;4.72;4.32;;;;;;;;;;1760943;28;20696;-66
2023/04/10 08:47:21;;;;;;;4.20;3.80;;;;;;;;;;1760260;28;20197;-65
2023/04/10 08:48:13;;;;;;;5.03;4.63;;;;;;;;;;1760036;28;20200;-65
2023/04/10 08:49:05;;;;;;;4.55;4.15;;;;;;;;;;1759622;28;20233;-65
2023/04/10 08:49:57;;;;;;;4.53;4.13;;;;;;;;;;1758135;28;20204;-65
2023/04/10 08:50:50;;;;;;;4.57;4.22;;;;;;;;;;1761596;28;20212;-65
2023/04/10 08:51:42;;;;;;;4.90;4.50;;;;;;;;;;1762414;28;20687;-65
2023/04/10 08:52:36;;;;;;;4.70;4.30;;;;;;;;;;1759803;28;20193;-65
2023/04/10 08:53:30;;;;;;;3.95;3.65;;;;;;;;;;1762247;28;20225;-65
2023/04/10 08:54:27;;;;;;;4.20;3.90;;;;;;;;;;1762272;28;20230;-64
2023/04/10 08:55:19;;;;;;;4.30;4.00;;;;;;;;;;1760107;28;20194;-66
2023/04/10 08:56:13;;;;;;;4.28;3.92;;;;;;;;;;1761922;28;20610;-65
2023/04/10 08:57:06;;;;;;;4.50;4.10;;;;;;;;;;1762112;28;20205;-65
2023/04/10 08:57:58;;;;;;;4.55;4.15;;;;;;;;;;1761743;28;20678;-65
2023/04/10 08:58:50;;;;;;;5.00;4.57;;;;;;;;;;1761422;28;20570;-66
2023/04/10 08:59:42;;;;;;;4.50;4.10;;;;;;;;;;1760842;28;20216;-65
2023/04/10 09:00:37;;;;;;;6.70;4.72;;;;;;;;;;1760592;28;20249;-65
2023/04/10 09:01:28;;;;;;;4.30;4.00;;;;;;;;;;1762097;28;20198;-65
2023/04/10 09:02:20;;;;;;;4.32;3.97;;;;;;;;;;1762275;28;20185;-65
2023/04/10 09:03:13;;;;;;;4.10;3.80;;;;;;;;;;1762164;28;20207;-66
2023/04/10 09:04:05;;;;;;;4.45;4.05;;;;;;;;;;1762247;28;20238;-65
2023/04/10 09:04:59;;;;;;;4.10;3.80;;;;;;;;;;1762243;28;20204;-65
2023/04/10 09:05:51;;;;;;;4.35;4.05;;;;;;;;;;1761793;28;20208;-66
2023/04/10 09:06:42;;;;;;;4.75;4.30;;;;;;;;;;1761984;28;20201;-67
2023/04/10 09:07:34;;;;;;;4.00;3.70;;;;;;;;;;1762015;28;20612;-67
2023/04/10 09:08:25;;;;;;;3.83;3.53;;;;;;;;;;1761583;28;20189;-67
2023/04/10 09:09:19;;;;;;;4.25;3.80;;;;;;;;;;1760980;28;20197;-67
2023/04/10 09:10:10;;;;;;;4.82;4.43;;;;;;;;;;1761702;28;20699;-67
2023/04/10 09:11:02;;;;;;;3.92;3.63;;;;;;;;;;1761826;28;20247;-67
2023/04/10 09:11:59;;;;;;;3.97;3.58;;;;;;;;;;1759459;28;20189;-67
2023/04/10 09:12:51;;;;;;;4.13;3.78;;;;;;;;;;1762097;28;20189;-66
2023/04/10 09:13:43;;;;;;;3.80;3.50;;;;;;;;;;1762153;28;20228;-67
2023/04/10 09:14:35;;;;;;;4.70;4.13;;;;;;;;;;1762227;28;20247;-66
2023/04/10 09:15:26;;;;;;;4.32;4.00;;;;;;;;;;1761952;28;20221;-66
2023/04/10 09:16:18;;;;;;;4.80;4.40;;;;;;;;;;1761643;28;20238;-67
2023/04/10 09:17:10;;;;;;;4.50;4.10;;;;;;;;;;1762118;28;20193;-67
2023/04/10 09:18:03;;;;;;;4.93;4.53;;;;;;;;;;1761673;28;20232;-66
2023/04/10 09:18:55;;;;;;;11.23;8.68;;;;;;;;;;1759253;28;20648;-66
2023/04/10 09:19:47;;;;;;;8.05;6.47;;;;;;;;;;1760526;28;20676;-64
2023/04/10 09:20:39;;;;;;;6.25;5.65;;;;;;;;;;1761854;28;20276;-65
2023/04/10 09:21:30;;;;;;;11.48;8.90;;;;;;;;;;1761791;28;20257;-65
2023/04/10 09:22:29;;;;;;;5.65;5.15;;;;;;;;;;1762131;28;20739;-66
2023/04/10 09:23:21;;;;;;;6.25;5.65;;;;;;;;;;1760568;28;20609;-65
2023/04/10 09:24:13;;;;;;;7.57;6.55;;;;;;;;;;1762299;28;20193;-66
2023/04/10 09:25:06;;;;;;;5.30;4.80;;;;;;;;;;1762126;28;20778;-66
2023/04/10 09:25:58;;;;;;;5.13;4.72;;;;;;;;;;1761773;28;20197;-67
2023/04/10 09:26:51;;;;;;;4.38;3.97;;;;;;;;;;1761702;28;20189;-66
2023/04/10 09:27:43;;;;;;;4.35;3.95;;;;;;;;;;1761711;28;20197;-66
2023/04/10 09:28:54;;;;;;;3.80;3.20;;;;;;;;;;1759133;28;20580;-66
2023/04/10 09:29:48;;;;;;;4.30;3.90;;;;;;;;;;1760077;28;20186;-66
2023/04/10 09:30:40;;;;;;;3.60;3.30;;;;;;;;;;1761556;28;20240;-66
2023/04/10 09:31:35;;;;;;;4.10;3.75;;;;;;;;;;1761702;28;20269;-67
2023/04/10 09:32:36;;;;;;;3.95;3.65;;;;;;;;;;1761758;28;20649;-66
2023/04/10 09:33:29;;;;;;;4.10;3.75;;;;;;;;;;1759350;28;20234;-66
2023/04/10 09:34:21;;;;;;;3.80;3.50;;;;;;;;;;1761869;28;20201;-66
2023/04/10 09:35:13;;;;;;;3.30;3.00;;;;;;;;;;1762039;28;20280;-67
2023/04/10 09:36:12;;;;;;;3.78;3.47;;;;;;;;;;1761691;28;20209;-66
2023/04/10 09:37:04;;;;;;;3.97;3.60;;;;;;;;;;1761958;28;20653;-66
2023/04/10 09:37:56;;;;;;;4.00;3.70;;;;;;;;;;1761396;28;20205;-67
2023/04/10 09:38:50;;;;;;;3.20;3.00;;;;;;;;;;1758672;28;20221;-66
2023/04/10 09:39:43;;;;;;;3.25;3.05;;;;;;;;;;1758720;28;20661;-66
2023/04/10 09:40:36;;;;;;;3.80;3.50;;;;;;;;;;1761515;28;20242;-69
2023/04/10 09:41:28;;;;;;;4.20;3.80;;;;;;;;;;1761609;28;20263;-67
2023/04/10 09:42:29;;;;;;;4.43;4.05;;;;;;;;;;1761874;28;20668;-66
2023/04/10 09:43:22;;;;;;;4.20;3.60;;;;;;;;;;1761920;28;20189;-68
2023/04/10 09:44:14;;;;;;;4.25;3.95;;;;;;;;;;1761750;28;20193;-69
2023/04/10 09:45:05;;;;;;;3.53;3.22;;;;;;;;;;1761877;28;20217;-67
2023/04/10 09:45:57;;;;;;;3.30;3.00;;;;;;;;;;1761911;28;20193;-67
2023/04/10 09:46:48;;;;;;;4.60;4.20;;;26.30;90.00;;;;;;1761522;28;20204;-67
2023/04/10 09:47:40;;;;;;;4.60;4.20;;;26.30;89.90;;;;;;1761599;28;20189;-67
2023/04/10 09:48:31;;;;;;;3.97;3.67;;;26.90;88.70;;;;;;1760512;28;20220;-67
2023/04/10 09:49:23;;;;;;;4.60;4.30;;;27.50;86.80;;;;;;1760167;28;20657;-67
2023/04/10 09:50:16;;;;;;;4.60;4.22;;;28.10;86.00;;;;;;1760977;28;20196;-68
2023/04/10 09:51:27;;;;;;;3.88;3.58;;;28.70;84.70;;;;;;1761644;28;20197;-68
2023/04/10 09:52:19;;;;;;;3.72;3.42;;;29.30;83.50;;;;;;1759307;28;20200;-68
2023/04/10 09:53:12;;;;;;;4.00;3.70;;;30.20;82.40;;;;;;1761899;28;20272;-68
2023/04/10 09:54:03;;;;;;;3.40;3.10;;;30.90;81.80;;;;;;1762004;28;20260;-67
2023/04/10 09:54:56;;;;;;;3.58;3.28;;;31.50;80.50;;;;;;1762022;28;20193;-68
2023/04/10 09:55:49;;;;;;;4.07;3.78;;;32.10;79.20;;;;;;1761792;28;20212;-66
2023/04/10 09:56:41;;;;;;;4.45;3.80;;;32.50;77.30;;;;;;1758954;28;20193;-68
2023/04/10 09:57:34;;;;;;;4.93;4.53;;;32.70;76.30;;;;;;1761638;28;20193;-68
2023/04/10 09:58:26;;;;;;;4.32;3.92;;;32.90;76.20;;;;;;1761196;28;20613;-68
2023/04/10 09:59:18;;;;;;;4.00;3.70;;;33.10;75.40;;;;;;1760654;28;20203;-67
2023/04/10 10:00:13;;;;;;;3.65;3.35;;;33.20;74.80;;;;;;1760110;28;20251;-68
2023/04/10 10:01:04;;;;;;;3.10;2.90;;;33.50;74.70;;;;;;1761023;28;20197;-67
2023/04/10 10:01:56;;;;;;;3.35;3.10;;;33.70;74.10;;;;;;1761441;28;20240;-68
2023/04/10 10:02:48;;;;;;;3.40;3.15;;;33.70;73.10;;;;;;1761715;28;20216;-68
2023/04/10 10:03:40;;;;;;;4.05;3.13;;;33.70;73.20;;;;;;1762224;28;20242;-68
2023/04/10 10:04:32;;;;;;;3.25;3.05;;;33.60;72.70;;;;;;1762349;28;20212;-67
2023/04/10 10:05:26;;;;;;;3.20;3.00;;;33.50;72.40;;;;;;1762362;28;20695;-67